createdAt,value
2024-03-01T00:02:11.186Z,99342.50
2024-03-01T00:04:38.743Z,99356.66
2024-03-01T00:07:06.485Z,99360.25
2024-03-01T00:09:34.455Z,99352.41
2024-03-01T00:12:03.183Z,99350.88
2024-03-01T00:14:30.652Z,99353.44
2024-03-01T00:16:58.137Z,99352.59
2024-03-01T00:19:25.757Z,99349.09
2024-03-01T00:21:53.231Z,99348.31
2024-03-01T00:24:20.677Z,99340.50
2024-03-01T00:26:48.105Z,99344.09
2024-03-01T00:29:18.439Z,99352.09
2024-03-01T00:31:45.859Z,99337.31
2024-03-01T00:34:13.398Z,99331.94
2024-03-01T00:36:40.849Z,99327.75
2024-03-01T00:39:08.368Z,99337.38
2024-03-01T00:41:35.944Z,99326.84
2024-03-01T00:44:03.499Z,99341.72
2024-03-01T00:46:32.298Z,99330.38
2024-03-01T00:48:59.773Z,99326.16
2024-03-01T00:51:27.206Z,99327.94
2024-03-01T00:53:54.669Z,99329.75
2024-03-01T00:56:22.564Z,99297.53
2024-03-01T00:58:50.066Z,99323.69
2024-03-01T01:01:17.563Z,99318.50
2024-03-01T01:03:46.338Z,99314.19
2024-03-01T01:06:13.769Z,99320.38
2024-03-01T01:08:41.221Z,99316.03
2024-03-01T01:11:08.747Z,99315.19
2024-03-01T01:13:36.253Z,99315.28
2024-03-01T01:16:03.750Z,99306.63
2024-03-01T01:18:31.172Z,99300.38
2024-03-01T01:20:59.920Z,99286.59
2024-03-01T01:23:27.643Z,99287.28
2024-03-01T01:25:55.069Z,99285.59
2024-03-01T01:28:22.522Z,99282.00
2024-03-01T01:30:49.996Z,99283.88
2024-03-01T01:33:17.464Z,99278.78
2024-03-01T01:35:44.886Z,99284.16
2024-03-01T01:38:13.640Z,99279.81
2024-03-01T01:40:41.735Z,99285.09
2024-03-01T01:43:10.033Z,99283.41
2024-03-01T01:45:37.502Z,99282.53
2024-03-01T01:48:05.958Z,99288.78
2024-03-01T01:50:33.975Z,99279.22
2024-03-01T01:53:03.598Z,99217.13
2024-03-01T01:55:34.312Z,99271.41
2024-03-01T01:58:01.808Z,99270.41
2024-03-01T02:00:29.261Z,99277.44
2024-03-01T02:02:56.731Z,99227.13
2024-03-01T02:05:24.163Z,99260.75
2024-03-01T02:07:51.600Z,99260.94
2024-03-01T02:10:19.357Z,99260.09
2024-03-01T02:12:57.894Z,99263.66
2024-03-01T02:15:26.380Z,99262.84
2024-03-01T02:17:53.886Z,99258.47
2024-03-01T02:20:21.649Z,99252.47
2024-03-01T02:22:52.116Z,99242.28
2024-03-01T02:25:20.921Z,99254.34
2024-03-01T02:27:49.157Z,99218.44
2024-03-01T02:30:16.983Z,99237.66
2024-03-01T02:32:44.502Z,99214.88
2024-03-01T02:35:11.979Z,99230.59
2024-03-01T02:37:39.810Z,99230.69
2024-03-01T02:40:09.432Z,99227.19
2024-03-01T02:42:38.187Z,99225.41
2024-03-01T02:45:06.305Z,99223.72
2024-03-01T02:47:33.794Z,99215.94
2024-03-01T02:50:01.282Z,99207.28
2024-03-01T02:52:28.923Z,99206.16
2024-03-01T02:54:56.470Z,99200.41
2024-03-01T02:57:24.391Z,99188.50
2024-03-01T02:59:53.312Z,99202.09
2024-03-01T03:02:20.812Z,99199.53
2024-03-01T03:04:48.492Z,99178.47
2024-03-01T03:07:16.367Z,99199.63
2024-03-01T03:09:44.377Z,99190.94
2024-03-01T03:12:12.543Z,99198.03
2024-03-01T03:14:40.075Z,99198.03
2024-03-01T03:17:08.843Z,99203.31
2024-03-01T03:19:37.103Z,99204.13
2024-03-01T03:22:10.088Z,99206.03
2024-03-01T03:24:38.850Z,99220.91
2024-03-01T03:27:06.681Z,99213.00
2024-03-01T03:29:34.150Z,99219.22
2024-03-01T03:32:01.627Z,99225.41
2024-03-01T03:34:30.405Z,99225.59
2024-03-01T03:36:58.175Z,99212.59
2024-03-01T03:39:25.655Z,99223.03
2024-03-01T03:41:53.147Z,99217.78
2024-03-01T03:44:20.626Z,99229.19
2024-03-01T03:46:48.959Z,99221.44
2024-03-01T03:49:16.730Z,99218.81
2024-03-01T03:51:45.599Z,99214.56
2024-03-01T03:54:16.995Z,99210.31
2024-03-01T03:56:44.443Z,99204.03
2024-03-01T03:59:11.926Z,99205.72
2024-03-01T04:01:39.454Z,99215.41
2024-03-01T04:04:06.981Z,99203.06
2024-03-01T04:06:34.451Z,99202.31
2024-03-01T04:09:04.638Z,99193.75
2024-03-01T04:11:31.976Z,99193.56
2024-03-01T04:13:59.436Z,99185.25
2024-03-01T04:16:26.928Z,99191.84
2024-03-01T04:18:54.625Z,99186.56
2024-03-01T04:21:22.186Z,99185.84
2024-03-01T04:23:50.351Z,99183.28
2024-03-01T04:26:19.943Z,99184.22
2024-03-01T04:28:48.670Z,99185.16
2024-03-01T04:31:16.328Z,99186.84
2024-03-01T04:33:43.773Z,99186.84
2024-03-01T04:36:11.518Z,99181.56
2024-03-01T04:38:39.993Z,99191.28
2024-03-01T04:41:07.601Z,99192.13
2024-03-01T04:43:35.069Z,99199.28
2024-03-01T04:46:05.119Z,99188.75
2024-03-01T04:48:32.599Z,99186.09
2024-03-01T04:51:00.065Z,99182.59
2024-03-01T04:53:27.475Z,99194.84
2024-03-01T04:55:54.881Z,99189.66
2024-03-01T04:58:22.340Z,99206.41
2024-03-01T05:00:49.956Z,99196.81
2024-03-01T05:03:18.780Z,99219.69
2024-03-01T05:05:46.213Z,99213.75
2024-03-01T05:08:13.846Z,99204.91
2024-03-01T05:10:41.327Z,99219.88
2024-03-01T05:13:09.391Z,99209.31
2024-03-01T05:15:36.870Z,99214.59
2024-03-01T05:18:05.214Z,99209.31
2024-03-01T05:20:33.957Z,99209.31
2024-03-01T05:23:01.380Z,99140.72
2024-03-01T05:25:28.831Z,99213.66
2024-03-01T05:27:56.297Z,99195.97
2024-03-01T05:30:36.034Z,99211.59
2024-03-01T05:33:13.792Z,99207.47
2024-03-01T05:35:42.662Z,99224.63
2024-03-01T05:38:10.096Z,99211.34
2024-03-01T05:40:46.000Z,99217.38
2024-03-01T05:43:18.715Z,99228.66
2024-03-01T05:45:46.265Z,99223.31
2024-03-01T05:48:14.757Z,99225.78
2024-03-01T05:50:43.626Z,99234.44
2024-03-01T05:53:16.191Z,99232.59
2024-03-01T05:55:44.656Z,99230.69
2024-03-01T05:58:12.484Z,99230.50
2024-03-01T06:00:41.589Z,99219.88
2024-03-01T06:03:09.851Z,99224.22
2024-03-01T06:05:37.306Z,99224.97
2024-03-01T06:08:06.845Z,99221.31
2024-03-01T06:10:34.602Z,99221.22
2024-03-01T06:13:02.219Z,99220.31
2024-03-01T06:15:30.037Z,99222.84
2024-03-01T06:17:57.538Z,99230.59
2024-03-01T06:20:25.025Z,99234.81
2024-03-01T06:22:52.448Z,99234.75
2024-03-01T06:25:21.651Z,99243.41
2024-03-01T06:27:49.179Z,99237.97
2024-03-01T06:30:16.820Z,99228.91
2024-03-01T06:32:44.520Z,99221.78
2024-03-01T06:35:12.132Z,99233.09
2024-03-01T06:37:39.643Z,99227.72
2024-03-01T06:40:10.750Z,99227.53
2024-03-01T06:42:39.703Z,99225.63
2024-03-01T06:45:09.232Z,99224.91
2024-03-01T06:47:36.701Z,99230.72
2024-03-01T06:50:04.452Z,99237.72
2024-03-01T06:52:32.017Z,99247.34
2024-03-01T06:54:59.902Z,99252.53
2024-03-01T06:57:27.362Z,99254.22
2024-03-01T06:59:57.413Z,99253.19
2024-03-01T07:02:24.829Z,99241.69
2024-03-01T07:04:52.265Z,99239.81
2024-03-01T07:07:19.865Z,99231.72
2024-03-01T07:09:47.697Z,99225.56
2024-03-01T07:12:15.117Z,99235.75
2024-03-01T07:14:44.282Z,99231.34
2024-03-01T07:17:13.025Z,99231.97
2024-03-01T07:19:40.748Z,99233.59
2024-03-01T07:22:08.683Z,99232.56
2024-03-01T07:24:36.208Z,99233.31
2024-03-01T07:27:03.764Z,99241.06
2024-03-01T07:29:31.236Z,99235.69
2024-03-01T07:32:00.818Z,99245.19
2024-03-01T07:34:31.114Z,99239.72
2024-03-01T07:36:59.245Z,99236.91
2024-03-01T07:39:26.734Z,99237.66
2024-03-01T07:41:54.142Z,99230.28
2024-03-01T07:44:21.563Z,99230.00
2024-03-01T07:46:50.588Z,99236.91
2024-03-01T07:49:18.083Z,99232.25
2024-03-01T07:51:46.853Z,99234.63
2024-03-01T07:54:14.447Z,99243.31
2024-03-01T07:56:41.863Z,99244.91
2024-03-01T07:59:09.365Z,99143.75
2024-03-01T08:01:36.967Z,99243.69
2024-03-01T08:04:05.146Z,99240.84
2024-03-01T08:06:33.169Z,99192.28
2024-03-01T08:09:04.954Z,99252.06
2024-03-01T08:11:41.327Z,99255.47
2024-03-01T08:14:12.977Z,99252.72
2024-03-01T08:16:40.427Z,99243.00
2024-03-01T08:19:07.867Z,99240.28
2024-03-01T08:21:35.363Z,99246.28
2024-03-01T08:24:04.325Z,99246.19
2024-03-01T08:26:31.827Z,99257.63
2024-03-01T08:29:01.721Z,99267.13
2024-03-01T08:31:31.582Z,99259.09
2024-03-01T08:34:01.028Z,99181.63
2024-03-01T08:36:28.756Z,99250.03
2024-03-01T08:39:11.541Z,99249.19
2024-03-01T08:41:40.693Z,99256.84
2024-03-01T08:44:20.423Z,99255.78
2024-03-01T08:46:47.985Z,99255.72
2024-03-01T08:49:49.437Z,99251.38
2024-03-01T08:52:26.846Z,99216.69
2024-03-01T08:54:57.050Z,99270.22
2024-03-01T08:57:25.885Z,99272.16
2024-03-01T08:59:53.735Z,99273.84
2024-03-01T09:02:45.594Z,99172.38
2024-03-01T09:05:13.109Z,99268.53
2024-03-01T09:07:40.638Z,99259.25
2024-03-01T09:10:15.469Z,99265.41
2024-03-01T09:12:42.941Z,99258.25
2024-03-01T09:15:13.414Z,99254.63
2024-03-01T09:17:40.863Z,99258.88
2024-03-01T09:20:15.194Z,99259.63
2024-03-01T09:22:43.990Z,99267.56
2024-03-01T09:25:34.089Z,99270.97
2024-03-01T09:28:01.555Z,99274.34
2024-03-01T09:30:29.141Z,99288.31
2024-03-01T09:32:56.639Z,99274.13
2024-03-01T09:35:24.128Z,99272.25
2024-03-01T09:37:51.844Z,99280.09
2024-03-01T09:41:02.346Z,99282.53
2024-03-01T09:43:33.484Z,99288.69
2024-03-01T09:46:03.766Z,99284.97
2024-03-01T09:48:40.926Z,99218.88
2024-03-01T09:51:19.866Z,99287.34
2024-03-01T09:53:56.919Z,99284.59
2024-03-01T09:56:30.059Z,99281.84
2024-03-01T09:59:00.380Z,99222.53
2024-03-01T10:01:30.132Z,99284.84
2024-03-01T10:04:05.275Z,99284.63
2024-03-01T10:06:55.138Z,99280.06
2024-03-01T10:09:26.393Z,99259.22
2024-03-01T10:11:59.780Z,99274.72
2024-03-01T10:14:32.403Z,99272.63
2024-03-01T10:17:02.428Z,99274.75
2024-03-01T10:19:36.645Z,99275.19
2024-03-01T10:22:12.116Z,99282.59
2024-03-01T10:24:48.079Z,99281.56
2024-03-01T10:27:21.946Z,99278.94
2024-03-01T10:29:58.513Z,99222.75
2024-03-01T10:32:31.084Z,99275.41
2024-03-01T10:34:59.700Z,99269.16
2024-03-01T10:37:31.922Z,99260.41
2024-03-01T10:40:03.692Z,99266.09
2024-03-01T10:42:32.476Z,99273.84
2024-03-01T10:45:06.021Z,99235.88
2024-03-01T10:47:33.517Z,99282.44
2024-03-01T10:50:09.083Z,99274.38
2024-03-01T10:52:38.746Z,99275.25
2024-03-01T10:55:11.782Z,99268.97
2024-03-01T10:57:46.918Z,99270.75
2024-03-01T11:00:14.898Z,99207.19
2024-03-01T11:02:42.610Z,99270.66
2024-03-01T11:05:13.581Z,99274.16
2024-03-01T11:07:48.597Z,99214.59
2024-03-01T11:10:17.984Z,99265.47
2024-03-01T11:12:52.911Z,99268.88
2024-03-01T11:15:20.349Z,99272.59
2024-03-01T11:17:50.990Z,99267.81
2024-03-01T11:20:22.093Z,99224.66
2024-03-01T11:22:53.696Z,99265.72
2024-03-01T11:25:21.780Z,99178.47
2024-03-01T11:27:55.569Z,99266.28
2024-03-01T11:30:24.910Z,99265.41
2024-03-01T11:32:55.426Z,99262.66
2024-03-01T11:35:24.058Z,99271.25
2024-03-01T11:37:59.096Z,99263.41
2024-03-01T11:40:32.027Z,99267.53
2024-03-01T11:43:06.727Z,99259.47
2024-03-01T11:45:40.273Z,99261.25
2024-03-01T11:48:16.467Z,99267.31
2024-03-01T11:50:49.321Z,99266.34
2024-03-01T11:53:28.833Z,99211.88
2024-03-01T11:56:06.930Z,99195.97
2024-03-01T11:58:39.329Z,99259.38
2024-03-01T12:01:16.992Z,99252.69
2024-03-01T12:04:03.555Z,99271.53
2024-03-01T12:06:40.642Z,99264.97
2024-03-01T12:09:13.618Z,99272.50
2024-03-01T12:11:48.543Z,99273.38
2024-03-01T12:14:20.822Z,99263.19
2024-03-01T12:16:51.178Z,99234.53
2024-03-01T12:19:19.463Z,99274.41
2024-03-01T12:22:06.423Z,99271.66
2024-03-01T12:24:36.415Z,99278.78
2024-03-01T12:27:06.575Z,99273.47
2024-03-01T12:29:37.714Z,99278.03
2024-03-01T12:32:11.411Z,99278.88
2024-03-01T12:34:42.364Z,99221.19
2024-03-01T12:37:24.225Z,99276.13
2024-03-01T12:39:57.104Z,99278.78
2024-03-01T12:42:27.696Z,99218.44
2024-03-01T12:45:00.233Z,99214.94
2024-03-01T12:47:37.002Z,99210.59
2024-03-01T12:50:15.080Z,99272.63
2024-03-01T12:52:53.162Z,99281.22
2024-03-01T12:55:23.104Z,99276.13
2024-03-01T12:57:54.389Z,99277.38
2024-03-01T13:00:26.577Z,99285.53
2024-03-01T13:03:01.523Z,99283.75
2024-03-01T13:05:30.114Z,99276.13
2024-03-01T13:07:58.254Z,99285.44
2024-03-01T13:10:26.771Z,99283.75
2024-03-01T13:12:57.780Z,99280.13
2024-03-01T13:15:28.191Z,99284.59
2024-03-01T13:18:01.537Z,99280.25
2024-03-01T13:20:32.305Z,99281.94
2024-03-01T13:23:32.296Z,99281.00
2024-03-01T13:26:08.150Z,99261.59
2024-03-01T13:28:35.686Z,99258.09
2024-03-01T13:31:05.177Z,99265.09
2024-03-01T13:33:38.796Z,99255.31
2024-03-01T13:36:11.909Z,99262.44
2024-03-01T13:38:45.495Z,99268.56
2024-03-01T13:41:18.573Z,99264.13
2024-03-01T13:43:49.362Z,99266.78
2024-03-01T13:46:22.440Z,99261.47
2024-03-01T13:48:50.800Z,99204.75
2024-03-01T13:51:19.511Z,99253.09
2024-03-01T13:53:47.488Z,99256.50
2024-03-01T13:56:15.381Z,99191.00
2024-03-01T13:58:42.880Z,99255.44
2024-03-01T14:01:10.449Z,99253.63
2024-03-01T14:03:39.408Z,99251.00
2024-03-01T14:06:07.412Z,99251.09
2024-03-01T14:08:34.895Z,99247.69
2024-03-01T14:11:02.629Z,99253.97
2024-03-01T14:13:30.701Z,99254.06
2024-03-01T14:16:03.233Z,99251.41
2024-03-01T14:18:30.971Z,99247.28
2024-03-01T14:20:59.956Z,99241.16
2024-03-01T14:23:27.495Z,99231.63
2024-03-01T14:25:55.126Z,99241.34
2024-03-01T14:28:22.792Z,99239.66
2024-03-01T14:30:50.331Z,99237.94
2024-03-01T14:33:21.937Z,99234.59
2024-03-01T14:35:49.582Z,99233.94
2024-03-01T14:38:20.177Z,99177.78
2024-03-01T14:40:57.127Z,99238.16
2024-03-01T14:43:24.697Z,99244.44
2024-03-01T14:45:53.669Z,99240.09
2024-03-01T14:48:29.354Z,99170.25
2024-03-01T14:50:58.780Z,99232.97
2024-03-01T14:53:38.176Z,99231.19
2024-03-01T14:56:08.318Z,99235.84
2024-03-01T14:58:37.002Z,99234.78
2024-03-01T15:01:05.134Z,99232.25
2024-03-01T15:03:32.660Z,99232.16
2024-03-01T15:06:00.159Z,99231.19
2024-03-01T15:08:30.072Z,99177.78
2024-03-01T15:11:08.699Z,99241.47
2024-03-01T15:13:36.473Z,99236.06
2024-03-01T15:16:04.438Z,99239.56
2024-03-01T15:18:32.338Z,99236.06
2024-03-01T15:20:59.777Z,99228.97
2024-03-01T15:23:27.309Z,99226.31
2024-03-01T15:26:03.887Z,99226.31
2024-03-01T15:28:32.672Z,99240.50
2024-03-01T15:31:00.509Z,99234.47
2024-03-01T15:33:29.577Z,99230.13
2024-03-01T15:35:57.168Z,99237.34
2024-03-01T15:38:25.898Z,99232.16
2024-03-01T15:40:56.781Z,99233.19
2024-03-01T15:43:24.388Z,99233.19
2024-03-01T15:45:53.182Z,99235.09
2024-03-01T15:48:20.809Z,99224.16
2024-03-01T15:50:48.245Z,99236.22
2024-03-01T15:53:19.255Z,99237.28
2024-03-01T15:55:57.822Z,99240.06
2024-03-01T15:58:26.025Z,99243.78
2024-03-01T16:00:54.963Z,99241.22
2024-03-01T16:03:22.439Z,99240.47
2024-03-01T16:05:49.885Z,99247.66
2024-03-01T16:08:20.312Z,99239.00
2024-03-01T16:10:52.318Z,99139.63
2024-03-01T16:13:20.088Z,99241.09
2024-03-01T16:15:56.370Z,99230.72
2024-03-01T16:18:23.797Z,99222.97
2024-03-01T16:20:51.864Z,99172.00
2024-03-01T16:23:19.504Z,99247.97
2024-03-01T16:25:46.932Z,99242.78
2024-03-01T16:28:18.648Z,99236.00
2024-03-01T16:30:46.136Z,99243.09
2024-03-01T16:33:17.514Z,99243.31
2024-03-01T16:36:06.056Z,99233.66
2024-03-01T16:38:40.175Z,99228.47
2024-03-01T16:41:21.059Z,99211.28
2024-03-01T16:43:49.106Z,99249.13
2024-03-01T16:46:17.586Z,99201.81
2024-03-01T16:48:49.679Z,99239.56
2024-03-01T16:51:28.880Z,99222.38
2024-03-01T16:53:56.319Z,99245.25
2024-03-01T16:56:23.778Z,99241.91
2024-03-01T16:58:51.492Z,99235.19
2024-03-01T17:01:23.334Z,99241.34
2024-03-01T17:03:55.050Z,99241.44
2024-03-01T17:06:23.864Z,99244.19
2024-03-01T17:08:51.441Z,99246.09
2024-03-01T17:11:20.164Z,99244.50
2024-03-01T17:13:48.829Z,99254.22
2024-03-01T17:16:22.379Z,99259.63
2024-03-01T17:18:49.909Z,99260.69
2024-03-01T17:21:19.569Z,99255.69
2024-03-01T17:23:47.075Z,99269.78
2024-03-01T17:26:14.554Z,99262.75
2024-03-01T17:28:42.062Z,99259.38
2024-03-01T17:31:09.963Z,99262.97
2024-03-01T17:33:37.704Z,99262.13
2024-03-01T17:36:05.631Z,99252.56
2024-03-01T17:38:34.386Z,99252.69
2024-03-01T17:41:01.848Z,99252.78
2024-03-01T17:43:29.308Z,99260.81
2024-03-01T17:45:56.783Z,99251.41
2024-03-01T17:48:24.456Z,99261.00
2024-03-01T17:50:51.933Z,99247.47
2024-03-01T17:53:19.430Z,99255.94
2024-03-01T17:55:48.305Z,99266.50
2024-03-01T17:58:15.869Z,99271.88
2024-03-01T18:00:43.555Z,99274.63
2024-03-01T18:03:11.143Z,99278.13
2024-03-01T18:05:38.624Z,99274.00
2024-03-01T18:08:06.705Z,99278.34
2024-03-01T18:10:34.209Z,99270.50
2024-03-01T18:13:03.037Z,99274.94
2024-03-01T18:15:30.508Z,99278.53
2024-03-01T18:17:57.983Z,99276.84
2024-03-01T18:20:25.859Z,99287.53
2024-03-01T18:22:53.433Z,99283.16
2024-03-01T18:25:20.966Z,99283.25
2024-03-01T18:27:48.426Z,99288.63
2024-03-01T18:30:17.640Z,99227.53
2024-03-01T18:32:45.144Z,99265.69
2024-03-01T18:35:12.596Z,99285.38
2024-03-01T18:37:40.338Z,99285.38
2024-03-01T18:40:09.478Z,99280.19
2024-03-01T18:42:37.021Z,99277.63
2024-03-01T18:45:05.306Z,99277.72
2024-03-01T18:47:34.338Z,99283.03
2024-03-01T18:50:02.402Z,99278.72
2024-03-01T18:52:30.119Z,99283.19
2024-03-01T18:54:57.569Z,99277.88
2024-03-01T18:57:25.017Z,99271.94
2024-03-01T18:59:52.463Z,99279.78
2024-03-01T19:02:28.168Z,99230.66
2024-03-01T19:04:59.351Z,99281.66
2024-03-01T19:07:26.839Z,99274.78
2024-03-01T19:09:54.291Z,99272.13
2024-03-01T19:12:24.199Z,99267.03
2024-03-01T19:14:52.324Z,99274.00
2024-03-01T19:17:20.198Z,99269.69
2024-03-01T19:19:47.744Z,99272.31
2024-03-01T19:22:16.649Z,99270.63
2024-03-01T19:24:44.094Z,99267.44
2024-03-01T19:27:11.514Z,99277.81
2024-03-01T19:29:38.986Z,99271.66
2024-03-01T19:32:07.076Z,99276.13
2024-03-01T19:34:34.645Z,99270.06
2024-03-01T19:37:02.160Z,99264.16
2024-03-01T19:39:30.912Z,99264.06
2024-03-01T19:41:58.337Z,99262.25
2024-03-01T19:44:27.408Z,99264.16
2024-03-01T19:46:55.017Z,99265.06
2024-03-01T19:49:22.472Z,99253.69
2024-03-01T19:51:49.904Z,99251.13
2024-03-01T19:54:19.719Z,99266.97
2024-03-01T19:56:48.471Z,99266.13
2024-03-01T19:59:15.916Z,99256.50
2024-03-01T20:01:43.466Z,99265.38
2024-03-01T20:04:11.249Z,99258.38
2024-03-01T20:06:38.735Z,99264.63
2024-03-01T20:09:06.263Z,99267.28
2024-03-01T20:11:33.810Z,99269.91
2024-03-01T20:14:02.683Z,99262.09
2024-03-01T20:16:30.253Z,99263.88
2024-03-01T20:18:57.680Z,99269.16
2024-03-01T20:21:25.139Z,99267.47
2024-03-01T20:23:52.584Z,99263.97
2024-03-01T20:26:20.695Z,99271.88
2024-03-01T20:28:48.196Z,99262.38
2024-03-01T20:31:17.126Z,99258.00
2024-03-01T20:33:44.796Z,99259.81
2024-03-01T20:36:12.245Z,99258.97
2024-03-01T20:38:39.667Z,99254.63
2024-03-01T20:41:07.127Z,99260.84
2024-03-01T20:43:35.213Z,99253.88
2024-03-01T20:46:02.942Z,99247.81
2024-03-01T20:48:33.599Z,99235.19
2024-03-01T20:51:01.200Z,99234.47
2024-03-01T20:53:28.644Z,99255.03
2024-03-01T20:55:56.118Z,99252.47
2024-03-01T20:58:24.131Z,99256.81
2024-03-01T21:00:51.653Z,99260.31
2024-03-01T21:03:19.143Z,99258.59
2024-03-01T21:05:47.875Z,99263.13
2024-03-01T21:08:15.300Z,99239.66
2024-03-01T21:10:42.804Z,99251.72
2024-03-01T21:13:10.372Z,99254.34
2024-03-01T21:15:38.023Z,99254.44
2024-03-01T21:18:06.210Z,99252.75
2024-03-01T21:20:33.731Z,99256.31
2024-03-01T21:23:02.542Z,99257.19
2024-03-01T21:25:30.482Z,99251.03
2024-03-01T21:27:58.841Z,99249.25
2024-03-01T21:30:28.738Z,99256.50
2024-03-01T21:32:56.436Z,99254.72
2024-03-01T21:35:23.981Z,99252.94
2024-03-01T21:37:51.417Z,99256.50
2024-03-01T21:40:22.284Z,99245.94
2024-03-01T21:42:49.980Z,99241.63
2024-03-01T21:45:17.641Z,99244.34
2024-03-01T21:47:45.516Z,99250.59
2024-03-01T21:50:13.079Z,99240.94
2024-03-01T21:52:40.846Z,99236.81
2024-03-01T21:55:09.244Z,99232.47
2024-03-01T21:57:38.097Z,99239.34
2024-03-01T22:00:07.103Z,99242.94
2024-03-01T22:02:34.847Z,99236.81
2024-03-01T22:05:03.831Z,99239.44
2024-03-01T22:07:31.865Z,99237.75
2024-03-01T22:09:59.509Z,99237.84
2024-03-01T22:12:26.974Z,99228.13
2024-03-01T22:14:55.954Z,99230.75
2024-03-01T22:17:25.155Z,99232.66
2024-03-01T22:19:53.266Z,99237.19
2024-03-01T22:22:20.699Z,99218.78
2024-03-01T22:24:48.259Z,99220.47
2024-03-01T22:27:18.247Z,99221.34
2024-03-01T22:29:47.478Z,99215.19
2024-03-01T22:32:16.657Z,99215.28
2024-03-01T22:34:44.146Z,99207.47
2024-03-01T22:37:11.623Z,99208.41
2024-03-01T22:39:39.566Z,99128.47
2024-03-01T22:42:07.476Z,99205.78
2024-03-01T22:44:34.914Z,99197.00
2024-03-01T22:47:02.385Z,99205.00
2024-03-01T22:49:31.159Z,99204.19
2024-03-01T22:51:58.622Z,99195.41
2024-03-01T22:54:26.593Z,99199.00
2024-03-01T22:56:54.249Z,99142.91
2024-03-01T22:59:51.209Z,99159.28
2024-03-01T23:02:20.256Z,99199.19
2024-03-01T23:04:49.235Z,99192.19
2024-03-01T23:07:17.755Z,99193.16
2024-03-01T23:09:45.244Z,99187.00
2024-03-01T23:12:12.847Z,99191.56
2024-03-01T23:14:45.913Z,99193.34
2024-03-01T23:17:14.541Z,99192.56
2024-03-01T23:19:42.319Z,99189.00
2024-03-01T23:22:14.635Z,99193.44
2024-03-01T23:24:42.235Z,99184.75
2024-03-01T23:27:10.358Z,99183.91
2024-03-01T23:29:37.944Z,99188.25
2024-03-01T23:32:07.201Z,99188.34
2024-03-01T23:34:35.974Z,99193.72
2024-03-01T23:37:03.543Z,99129.22
2024-03-01T23:39:32.384Z,99184.84
2024-03-01T23:41:59.856Z,99186.75
2024-03-01T23:44:28.299Z,99181.66
2024-03-01T23:46:56.420Z,99183.34
2024-03-01T23:49:24.369Z,99183.34
2024-03-01T23:51:52.689Z,99177.28
2024-03-01T23:54:20.205Z,99179.94
2024-03-01T23:56:49.332Z,99171.28
2024-03-01T23:59:16.781Z,99170.78
